sensor_id;sensor_type;location;lat;lon;timestamp;P1;durP1;ratioP1;P2;durP2;ratioP2
23304;SDS011;11821;51.456;8.844;2024-01-15T00:01:37;12.88;;;6.70;;
23304;SDS011;11821;51.456;8.844;2024-01-15T00:04:03;9.30;;;6.43;;
23304;SDS011;11821;51.456;8.844;2024-01-15T00:06:30;12.82;;;6.10;;
23304;SDS011;11821;51.456;8.844;2024-01-15T00:08:58;9.43;;;6.53;;
23304;SDS011;11821;51.456;8.844;2024-01-15T00:11:25;12.93;;;6.50;;
23304;SDS011;11821;51.456;8.844;2024-01-15T00:13:51;9.85;;;6.50;;
23304;SDS011;11821;51.456;8.844;2024-01-15T00:16:18;8.75;;;5.05;;
23304;SDS011;11821;51.456;8.844;2024-01-15T00:18:45;13.43;;;6.85;;
23304;SDS011;11821;51.456;8.844;2024-01-15T00:21:11;12.52;;;6.47;;
23304;SDS011;11821;51.456;8.844;2024-01-15T00:23:42;8.93;;;5.88;;
23304;SDS011;11821;51.456;8.844;2024-01-15T00:26:10;7.05;;;4.38;;
23304;SDS011;11821;51.456;8.844;2024-01-15T00:28:37;7.43;;;5.13;;
23304;SDS011;11821;51.456;8.844;2024-01-15T00:31:06;11.43;;;6.07;;
23304;SDS011;11821;51.456;8.844;2024-01-15T00:33:33;11.75;;;5.53;;
23304;SDS011;11821;51.456;8.844;2024-01-15T00:36:00;11.45;;;5.03;;
23304;SDS011;11821;51.456;8.844;2024-01-15T00:38:26;7.55;;;4.65;;
23304;SDS011;11821;51.456;8.844;2024-01-15T00:40:53;6.13;;;4.40;;
23304;SDS011;11821;51.456;8.844;2024-01-15T00:43:19;6.85;;;4.85;;
23304;SDS011;11821;51.456;8.844;2024-01-15T00:45:46;10.68;;;4.72;;
23304;SDS011;11821;51.456;8.844;2024-01-15T00:48:13;7.10;;;4.47;;
23304;SDS011;11821;51.456;8.844;2024-01-15T00:50:40;8.43;;;5.38;;
23304;SDS011;11821;51.456;8.844;2024-01-15T00:53:06;9.95;;;5.35;;
23304;SDS011;11821;51.456;8.844;2024-01-15T00:55:33;6.82;;;4.45;;
23304;SDS011;11821;51.456;8.844;2024-01-15T00:57:59;9.13;;;5.18;;
23304;SDS011;11821;51.456;8.844;2024-01-15T01:00:26;8.38;;;4.88;;
23304;SDS011;11821;51.456;8.844;2024-01-15T01:02:53;8.88;;;5.38;;
23304;SDS011;11821;51.456;8.844;2024-01-15T01:05:19;7.10;;;4.95;;
23304;SDS011;11821;51.456;8.844;2024-01-15T01:07:46;9.10;;;6.20;;
23304;SDS011;11821;51.456;8.844;2024-01-15T01:10:12;11.50;;;5.85;;
23304;SDS011;11821;51.456;8.844;2024-01-15T01:12:39;10.25;;;5.95;;
23304;SDS011;11821;51.456;8.844;2024-01-15T01:15:05;9.30;;;5.93;;
23304;SDS011;11821;51.456;8.844;2024-01-15T01:17:32;9.93;;;5.97;;
23304;SDS011;11821;51.456;8.844;2024-01-15T01:19:59;11.30;;;5.88;;
23304;SDS011;11821;51.456;8.844;2024-01-15T01:22:25;8.90;;;5.55;;
23304;SDS011;11821;51.456;8.844;2024-01-15T01:24:52;9.57;;;6.07;;
23304;SDS011;11821;51.456;8.844;2024-01-15T01:27:18;8.00;;;5.32;;
23304;SDS011;11821;51.456;8.844;2024-01-15T01:29:45;8.73;;;5.47;;
23304;SDS011;11821;51.456;8.844;2024-01-15T01:32:12;12.05;;;6.93;;
23304;SDS011;11821;51.456;8.844;2024-01-15T01:34:41;11.60;;;6.70;;
23304;SDS011;11821;51.456;8.844;2024-01-15T01:37:08;8.52;;;5.93;;
23304;SDS011;11821;51.456;8.844;2024-01-15T01:39:35;10.75;;;7.32;;
23304;SDS011;11821;51.456;8.844;2024-01-15T01:42:02;14.32;;;6.32;;
23304;SDS011;11821;51.456;8.844;2024-01-15T01:44:28;16.85;;;6.97;;
23304;SDS011;11821;51.456;8.844;2024-01-15T01:46:55;13.15;;;7.32;;
23304;SDS011;11821;51.456;8.844;2024-01-15T01:49:22;9.38;;;5.75;;
23304;SDS011;11821;51.456;8.844;2024-01-15T01:51:49;11.98;;;6.72;;
23304;SDS011;11821;51.456;8.844;2024-01-15T01:54:16;15.55;;;7.93;;
23304;SDS011;11821;51.456;8.844;2024-01-15T01:56:42;12.65;;;7.35;;
23304;SDS011;11821;51.456;8.844;2024-01-15T01:59:09;14.32;;;7.32;;
23304;SDS011;11821;51.456;8.844;2024-01-15T02:01:36;11.90;;;6.93;;
23304;SDS011;11821;51.456;8.844;2024-01-15T02:04:03;11.27;;;7.80;;
23304;SDS011;11821;51.456;8.844;2024-01-15T02:06:30;12.55;;;7.32;;
23304;SDS011;11821;51.456;8.844;2024-01-15T02:08:56;17.67;;;8.30;;
23304;SDS011;11821;51.456;8.844;2024-01-15T02:11:23;14.60;;;7.43;;
23304;SDS011;11821;51.456;8.844;2024-01-15T02:13:50;15.55;;;8.63;;
23304;SDS011;11821;51.456;8.844;2024-01-15T02:16:16;10.57;;;6.75;;
23304;SDS011;11821;51.456;8.844;2024-01-15T02:18:43;13.95;;;8.35;;
23304;SDS011;11821;51.456;8.844;2024-01-15T02:21:10;15.25;;;8.13;;
23304;SDS011;11821;51.456;8.844;2024-01-15T02:23:37;14.93;;;7.53;;
23304;SDS011;11821;51.456;8.844;2024-01-15T02:26:04;12.23;;;7.63;;
23304;SDS011;11821;51.456;8.844;2024-01-15T02:28:32;16.90;;;9.18;;
23304;SDS011;11821;51.456;8.844;2024-01-15T02:30:59;12.55;;;6.75;;
23304;SDS011;11821;51.456;8.844;2024-01-15T02:33:25;13.57;;;7.95;;
23304;SDS011;11821;51.456;8.844;2024-01-15T02:35:52;14.57;;;8.55;;
23304;SDS011;11821;51.456;8.844;2024-01-15T02:38:18;12.95;;;7.25;;
23304;SDS011;11821;51.456;8.844;2024-01-15T02:40:45;12.75;;;6.78;;
23304;SDS011;11821;51.456;8.844;2024-01-15T02:43:12;13.95;;;7.55;;
23304;SDS011;11821;51.456;8.844;2024-01-15T02:45:39;12.77;;;6.28;;
23304;SDS011;11821;51.456;8.844;2024-01-15T02:48:06;15.60;;;7.35;;
23304;SDS011;11821;51.456;8.844;2024-01-15T02:50:32;15.43;;;7.68;;
23304;SDS011;11821;51.456;8.844;2024-01-15T02:53:01;13.98;;;7.15;;
23304;SDS011;11821;51.456;8.844;2024-01-15T02:55:28;14.02;;;7.88;;
23304;SDS011;11821;51.456;8.844;2024-01-15T02:57:57;14.93;;;5.72;;
23304;SDS011;11821;51.456;8.844;2024-01-15T03:00:24;13.55;;;7.60;;
23304;SDS011;11821;51.456;8.844;2024-01-15T03:02:51;11.75;;;5.97;;
23304;SDS011;11821;51.456;8.844;2024-01-15T03:05:17;14.52;;;7.22;;
23304;SDS011;11821;51.456;8.844;2024-01-15T03:07:44;19.40;;;7.32;;
23304;SDS011;11821;51.456;8.844;2024-01-15T03:10:11;16.90;;;6.88;;
23304;SDS011;11821;51.456;8.844;2024-01-15T03:12:37;11.82;;;6.10;;
23304;SDS011;11821;51.456;8.844;2024-01-15T03:15:04;11.40;;;5.72;;
23304;SDS011;11821;51.456;8.844;2024-01-15T03:17:31;8.80;;;5.70;;
23304;SDS011;11821;51.456;8.844;2024-01-15T03:19:57;10.60;;;5.55;;
23304;SDS011;11821;51.456;8.844;2024-01-15T03:22:24;19.83;;;6.38;;
23304;SDS011;11821;51.456;8.844;2024-01-15T03:24:50;14.25;;;6.13;;
23304;SDS011;11821;51.456;8.844;2024-01-15T03:27:17;11.75;;;6.20;;
23304;SDS011;11821;51.456;8.844;2024-01-15T03:29:44;21.17;;;7.93;;
23304;SDS011;11821;51.456;8.844;2024-01-15T03:32:10;14.77;;;6.03;;
23304;SDS011;11821;51.456;8.844;2024-01-15T03:34:37;19.63;;;6.70;;
23304;SDS011;11821;51.456;8.844;2024-01-15T03:37:04;14.90;;;6.07;;
23304;SDS011;11821;51.456;8.844;2024-01-15T03:39:31;14.45;;;6.60;;
23304;SDS011;11821;51.456;8.844;2024-01-15T03:41:57;14.10;;;6.65;;
23304;SDS011;11821;51.456;8.844;2024-01-15T03:44:24;9.35;;;5.20;;
23304;SDS011;11821;51.456;8.844;2024-01-15T03:46:51;13.40;;;6.80;;
23304;SDS011;11821;51.456;8.844;2024-01-15T03:49:17;14.88;;;7.88;;
23304;SDS011;11821;51.456;8.844;2024-01-15T03:51:44;15.57;;;5.93;;
23304;SDS011;11821;51.456;8.844;2024-01-15T03:54:11;16.13;;;5.78;;
23304;SDS011;11821;51.456;8.844;2024-01-15T03:56:37;12.65;;;5.93;;
23304;SDS011;11821;51.456;8.844;2024-01-15T03:59:04;12.27;;;5.93;;
23304;SDS011;11821;51.456;8.844;2024-01-15T04:01:30;9.57;;;4.95;;
23304;SDS011;11821;51.456;8.844;2024-01-15T04:03:57;10.93;;;6.15;;
23304;SDS011;11821;51.456;8.844;2024-01-15T04:06:23;9.15;;;5.05;;
23304;SDS011;11821;51.456;8.844;2024-01-15T04:08:50;11.32;;;5.45;;
23304;SDS011;11821;51.456;8.844;2024-01-15T04:11:17;13.13;;;5.75;;
23304;SDS011;11821;51.456;8.844;2024-01-15T04:13:43;10.27;;;4.57;;
23304;SDS011;11821;51.456;8.844;2024-01-15T04:16:10;10.65;;;5.28;;
23304;SDS011;11821;51.456;8.844;2024-01-15T04:18:37;8.45;;;5.20;;
23304;SDS011;11821;51.456;8.844;2024-01-15T04:21:04;16.35;;;5.95;;
23304;SDS011;11821;51.456;8.844;2024-01-15T04:23:32;15.05;;;5.13;;
23304;SDS011;11821;51.456;8.844;2024-01-15T04:25:59;7.80;;;4.85;;
23304;SDS011;11821;51.456;8.844;2024-01-15T04:28:25;14.85;;;5.95;;
23304;SDS011;11821;51.456;8.844;2024-01-15T04:30:52;29.13;;;6.10;;
23304;SDS011;11821;51.456;8.844;2024-01-15T04:33:18;12.07;;;6.25;;
23304;SDS011;11821;51.456;8.844;2024-01-15T04:35:45;15.00;;;5.75;;
23304;SDS011;11821;51.456;8.844;2024-01-15T04:38:11;12.50;;;5.43;;
23304;SDS011;11821;51.456;8.844;2024-01-15T04:40:38;15.25;;;5.88;;
23304;SDS011;11821;51.456;8.844;2024-01-15T04:43:04;10.30;;;4.63;;
23304;SDS011;11821;51.456;8.844;2024-01-15T04:45:31;12.77;;;5.10;;
23304;SDS011;11821;51.456;8.844;2024-01-15T04:47:58;15.35;;;5.05;;
23304;SDS011;11821;51.456;8.844;2024-01-15T04:50:24;16.25;;;5.25;;
23304;SDS011;11821;51.456;8.844;2024-01-15T04:52:51;16.92;;;5.35;;
23304;SDS011;11821;51.456;8.844;2024-01-15T04:55:18;16.45;;;6.95;;
23304;SDS011;11821;51.456;8.844;2024-01-15T04:57:44;11.15;;;4.50;;
23304;SDS011;11821;51.456;8.844;2024-01-15T05:00:11;10.02;;;5.28;;
23304;SDS011;11821;51.456;8.844;2024-01-15T05:02:38;14.43;;;5.50;;
23304;SDS011;11821;51.456;8.844;2024-01-15T05:05:05;13.05;;;4.57;;
23304;SDS011;11821;51.456;8.844;2024-01-15T05:07:32;14.73;;;5.70;;
23304;SDS011;11821;51.456;8.844;2024-01-15T05:09:58;14.13;;;5.18;;
23304;SDS011;11821;51.456;8.844;2024-01-15T05:12:25;11.68;;;5.43;;
23304;SDS011;11821;51.456;8.844;2024-01-15T05:14:51;9.95;;;4.93;;
23304;SDS011;11821;51.456;8.844;2024-01-15T05:17:18;12.70;;;6.13;;
23304;SDS011;11821;51.456;8.844;2024-01-15T05:19:45;14.60;;;6.15;;
23304;SDS011;11821;51.456;8.844;2024-01-15T05:22:11;14.73;;;5.35;;
23304;SDS011;11821;51.456;8.844;2024-01-15T05:24:38;17.98;;;6.20;;
23304;SDS011;11821;51.456;8.844;2024-01-15T05:27:04;16.58;;;6.30;;
23304;SDS011;11821;51.456;8.844;2024-01-15T05:29:31;13.82;;;4.97;;
23304;SDS011;11821;51.456;8.844;2024-01-15T05:31:57;11.60;;;6.57;;
23304;SDS011;11821;51.456;8.844;2024-01-15T05:34:24;15.85;;;5.68;;
23304;SDS011;11821;51.456;8.844;2024-01-15T05:36:50;16.08;;;6.97;;
23304;SDS011;11821;51.456;8.844;2024-01-15T05:39:17;14.95;;;7.03;;
23304;SDS011;11821;51.456;8.844;2024-01-15T05:41:44;15.25;;;6.32;;
23304;SDS011;11821;51.456;8.844;2024-01-15T05:44:10;8.55;;;4.63;;
23304;SDS011;11821;51.456;8.844;2024-01-15T05:46:37;10.25;;;5.35;;
23304;SDS011;11821;51.456;8.844;2024-01-15T05:49:03;14.82;;;4.97;;
23304;SDS011;11821;51.456;8.844;2024-01-15T05:51:30;13.10;;;6.28;;
23304;SDS011;11821;51.456;8.844;2024-01-15T05:53:56;18.00;;;7.70;;
23304;SDS011;11821;51.456;8.844;2024-01-15T05:56:23;16.05;;;6.32;;
23304;SDS011;11821;51.456;8.844;2024-01-15T05:58:50;12.25;;;6.15;;
23304;SDS011;11821;51.456;8.844;2024-01-15T06:01:16;18.38;;;6.28;;
23304;SDS011;11821;51.456;8.844;2024-01-15T06:03:43;10.65;;;5.22;;
23304;SDS011;11821;51.456;8.844;2024-01-15T06:06:09;11.30;;;5.25;;
23304;SDS011;11821;51.456;8.844;2024-01-15T06:08:36;10.05;;;5.15;;
23304;SDS011;11821;51.456;8.844;2024-01-15T06:11:03;11.23;;;5.93;;
23304;SDS011;11821;51.456;8.844;2024-01-15T06:13:30;17.00;;;6.22;;
23304;SDS011;11821;51.456;8.844;2024-01-15T06:15:57;10.10;;;5.88;;
23304;SDS011;11821;51.456;8.844;2024-01-15T06:18:23;13.32;;;5.85;;
23304;SDS011;11821;51.456;8.844;2024-01-15T06:20:50;10.27;;;5.10;;
23304;SDS011;11821;51.456;8.844;2024-01-15T06:23:16;12.25;;;6.32;;
23304;SDS011;11821;51.456;8.844;2024-01-15T06:25:43;13.80;;;4.78;;
23304;SDS011;11821;51.456;8.844;2024-01-15T06:28:10;10.38;;;5.53;;
23304;SDS011;11821;51.456;8.844;2024-01-15T06:30:36;7.85;;;3.97;;
23304;SDS011;11821;51.456;8.844;2024-01-15T06:33:03;9.70;;;5.25;;
23304;SDS011;11821;51.456;8.844;2024-01-15T06:35:29;19.65;;;6.93;;
23304;SDS011;11821;51.456;8.844;2024-01-15T06:37:56;11.60;;;6.28;;
23304;SDS011;11821;51.456;8.844;2024-01-15T06:40:22;12.98;;;5.60;;
23304;SDS011;11821;51.456;8.844;2024-01-15T06:42:49;12.30;;;5.93;;
23304;SDS011;11821;51.456;8.844;2024-01-15T06:45:16;12.30;;;5.93;;
23304;SDS011;11821;51.456;8.844;2024-01-15T06:47:42;17.45;;;5.80;;
23304;SDS011;11821;51.456;8.844;2024-01-15T06:50:10;15.50;;;5.47;;
23304;SDS011;11821;51.456;8.844;2024-01-15T06:52:37;13.30;;;6.97;;
23304;SDS011;11821;51.456;8.844;2024-01-15T06:55:03;14.40;;;4.65;;
23304;SDS011;11821;51.456;8.844;2024-01-15T06:57:31;10.70;;;5.45;;
23304;SDS011;11821;51.456;8.844;2024-01-15T06:59:58;12.57;;;5.32;;
23304;SDS011;11821;51.456;8.844;2024-01-15T07:02:24;12.23;;;5.88;;
23304;SDS011;11821;51.456;8.844;2024-01-15T07:04:52;14.95;;;5.60;;
23304;SDS011;11821;51.456;8.844;2024-01-15T07:07:19;16.23;;;5.40;;
23304;SDS011;11821;51.456;8.844;2024-01-15T07:09:45;10.52;;;5.90;;
23304;SDS011;11821;51.456;8.844;2024-01-15T07:12:12;17.10;;;5.32;;
23304;SDS011;11821;51.456;8.844;2024-01-15T07:14:38;9.00;;;4.50;;
23304;SDS011;11821;51.456;8.844;2024-01-15T07:17:05;7.13;;;4.57;;
23304;SDS011;11821;51.456;8.844;2024-01-15T07:19:32;8.48;;;4.72;;
23304;SDS011;11821;51.456;8.844;2024-01-15T07:21:58;12.52;;;4.70;;
23304;SDS011;11821;51.456;8.844;2024-01-15T07:24:25;9.43;;;5.70;;
23304;SDS011;11821;51.456;8.844;2024-01-15T07:26:52;10.93;;;6.00;;
23304;SDS011;11821;51.456;8.844;2024-01-15T07:29:18;23.75;;;8.52;;
23304;SDS011;11821;51.456;8.844;2024-01-15T07:31:49;8.38;;;5.18;;
23304;SDS011;11821;51.456;8.844;2024-01-15T07:34:16;15.93;;;6.20;;
23304;SDS011;11821;51.456;8.844;2024-01-15T07:36:45;17.55;;;6.25;;
23304;SDS011;11821;51.456;8.844;2024-01-15T07:39:12;15.90;;;8.00;;
23304;SDS011;11821;51.456;8.844;2024-01-15T07:41:39;11.93;;;6.38;;
23304;SDS011;11821;51.456;8.844;2024-01-15T07:44:06;11.45;;;4.88;;
23304;SDS011;11821;51.456;8.844;2024-01-15T07:46:32;10.85;;;5.30;;
23304;SDS011;11821;51.456;8.844;2024-01-15T07:48:59;12.75;;;6.38;;
23304;SDS011;11821;51.456;8.844;2024-01-15T07:51:26;12.00;;;6.45;;
23304;SDS011;11821;51.456;8.844;2024-01-15T07:53:53;13.00;;;6.75;;
23304;SDS011;11821;51.456;8.844;2024-01-15T07:56:21;15.40;;;8.07;;
23304;SDS011;11821;51.456;8.844;2024-01-15T07:58:48;11.13;;;6.47;;
23304;SDS011;11821;51.456;8.844;2024-01-15T08:01:14;15.52;;;8.65;;
23304;SDS011;11821;51.456;8.844;2024-01-15T08:03:41;14.05;;;8.48;;
23304;SDS011;11821;51.456;8.844;2024-01-15T08:06:08;16.58;;;8.30;;
23304;SDS011;11821;51.456;8.844;2024-01-15T08:08:35;12.32;;;7.40;;
23304;SDS011;11821;51.456;8.844;2024-01-15T08:11:02;12.13;;;5.97;;
23304;SDS011;11821;51.456;8.844;2024-01-15T08:13:28;11.02;;;7.70;;
23304;SDS011;11821;51.456;8.844;2024-01-15T08:15:56;9.05;;;6.07;;
23304;SDS011;11821;51.456;8.844;2024-01-15T08:18:22;10.10;;;5.85;;
23304;SDS011;11821;51.456;8.844;2024-01-15T08:20:49;6.72;;;4.88;;
23304;SDS011;11821;51.456;8.844;2024-01-15T08:23:16;13.43;;;6.88;;
23304;SDS011;11821;51.456;8.844;2024-01-15T08:25:43;8.43;;;4.53;;
23304;SDS011;11821;51.456;8.844;2024-01-15T08:28:10;8.65;;;5.05;;
23304;SDS011;11821;51.456;8.844;2024-01-15T08:30:36;8.13;;;5.03;;
23304;SDS011;11821;51.456;8.844;2024-01-15T08:33:03;7.45;;;5.28;;
23304;SDS011;11821;51.456;8.844;2024-01-15T08:35:30;12.50;;;5.20;;
23304;SDS011;11821;51.456;8.844;2024-01-15T08:37:57;11.77;;;5.75;;
23304;SDS011;11821;51.456;8.844;2024-01-15T08:40:24;8.15;;;4.53;;
23304;SDS011;11821;51.456;8.844;2024-01-15T08:42:50;9.73;;;6.13;;
23304;SDS011;11821;51.456;8.844;2024-01-15T08:45:17;8.82;;;5.88;;
23304;SDS011;11821;51.456;8.844;2024-01-15T08:47:44;13.27;;;7.03;;
23304;SDS011;11821;51.456;8.844;2024-01-15T08:50:11;9.00;;;4.40;;
23304;SDS011;11821;51.456;8.844;2024-01-15T08:52:37;11.35;;;6.97;;
23304;SDS011;11821;51.456;8.844;2024-01-15T08:55:04;10.65;;;6.60;;
23304;SDS011;11821;51.456;8.844;2024-01-15T08:57:30;12.82;;;7.65;;
23304;SDS011;11821;51.456;8.844;2024-01-15T08:59:57;11.90;;;6.18;;
23304;SDS011;11821;51.456;8.844;2024-01-15T09:02:25;13.02;;;7.78;;
23304;SDS011;11821;51.456;8.844;2024-01-15T09:04:51;9.85;;;6.32;;
23304;SDS011;11821;51.456;8.844;2024-01-15T09:07:18;9.93;;;5.03;;
23304;SDS011;11821;51.456;8.844;2024-01-15T09:09:44;11.50;;;4.85;;
23304;SDS011;11821;51.456;8.844;2024-01-15T09:12:11;10.18;;;5.68;;
23304;SDS011;11821;51.456;8.844;2024-01-15T09:14:41;10.05;;;5.75;;
23304;SDS011;11821;51.456;8.844;2024-01-15T09:17:07;7.30;;;3.97;;
23304;SDS011;11821;51.456;8.844;2024-01-15T09:19:34;13.38;;;6.10;;
23304;SDS011;11821;51.456;8.844;2024-01-15T09:22:00;11.07;;;4.88;;
23304;SDS011;11821;51.456;8.844;2024-01-15T09:24:27;9.27;;;5.05;;
23304;SDS011;11821;51.456;8.844;2024-01-15T09:26:54;11.10;;;6.55;;
23304;SDS011;11821;51.456;8.844;2024-01-15T09:29:20;15.27;;;7.55;;
23304;SDS011;11821;51.456;8.844;2024-01-15T09:31:52;6.45;;;4.43;;
23304;SDS011;11821;51.456;8.844;2024-01-15T09:34:18;10.93;;;4.90;;
23304;SDS011;11821;51.456;8.844;2024-01-15T09:36:45;11.02;;;5.50;;
23304;SDS011;11821;51.456;8.844;2024-01-15T09:39:13;9.70;;;5.65;;
23304;SDS011;11821;51.456;8.844;2024-01-15T09:41:41;5.35;;;3.75;;
23304;SDS011;11821;51.456;8.844;2024-01-15T09:44:07;8.20;;;5.05;;
23304;SDS011;11821;51.456;8.844;2024-01-15T09:46:34;8.90;;;5.45;;
23304;SDS011;11821;51.456;8.844;2024-01-15T09:49:01;12.60;;;5.18;;
23304;SDS011;11821;51.456;8.844;2024-01-15T09:51:29;8.25;;;4.75;;
23304;SDS011;11821;51.456;8.844;2024-01-15T09:53:57;9.85;;;4.80;;
23304;SDS011;11821;51.456;8.844;2024-01-15T09:56:24;11.55;;;4.70;;
23304;SDS011;11821;51.456;8.844;2024-01-15T09:58:50;10.13;;;5.00;;
23304;SDS011;11821;51.456;8.844;2024-01-15T10:01:19;8.23;;;4.03;;
23304;SDS011;11821;51.456;8.844;2024-01-15T10:03:46;10.98;;;5.20;;
23304;SDS011;11821;51.456;8.844;2024-01-15T10:06:17;8.45;;;5.28;;
23304;SDS011;11821;51.456;8.844;2024-01-15T10:08:47;10.77;;;5.97;;
23304;SDS011;11821;51.456;8.844;2024-01-15T10:11:14;9.13;;;4.32;;
23304;SDS011;11821;51.456;8.844;2024-01-15T10:13:40;7.85;;;4.97;;
23304;SDS011;11821;51.456;8.844;2024-01-15T10:16:07;7.78;;;4.18;;
23304;SDS011;11821;51.456;8.844;2024-01-15T10:18:35;14.02;;;5.65;;
23304;SDS011;11821;51.456;8.844;2024-01-15T10:21:02;10.20;;;6.10;;
23304;SDS011;11821;51.456;8.844;2024-01-15T10:23:31;7.07;;;3.92;;
23304;SDS011;11821;51.456;8.844;2024-01-15T10:25:58;8.60;;;5.63;;
23304;SDS011;11821;51.456;8.844;2024-01-15T10:28:28;8.90;;;4.97;;
23304;SDS011;11821;51.456;8.844;2024-01-15T10:30:56;5.70;;;3.05;;
23304;SDS011;11821;51.456;8.844;2024-01-15T10:33:24;6.22;;;4.30;;
23304;SDS011;11821;51.456;8.844;2024-01-15T10:35:54;6.03;;;4.25;;
23304;SDS011;11821;51.456;8.844;2024-01-15T10:38:21;4.78;;;3.58;;
23304;SDS011;11821;51.456;8.844;2024-01-15T10:40:55;8.77;;;5.35;;
23304;SDS011;11821;51.456;8.844;2024-01-15T10:43:22;6.88;;;4.65;;
23304;SDS011;11821;51.456;8.844;2024-01-15T10:45:49;5.68;;;4.07;;
23304;SDS011;11821;51.456;8.844;2024-01-15T10:48:17;5.43;;;3.55;;
23304;SDS011;11821;51.456;8.844;2024-01-15T10:50:45;5.45;;;3.17;;
23304;SDS011;11821;51.456;8.844;2024-01-15T10:53:12;4.07;;;3.00;;
23304;SDS011;11821;51.456;8.844;2024-01-15T10:55:40;4.70;;;3.63;;
23304;SDS011;11821;51.456;8.844;2024-01-15T10:58:07;6.13;;;4.07;;
23304;SDS011;11821;51.456;8.844;2024-01-15T11:00:35;6.68;;;3.03;;
23304;SDS011;11821;51.456;8.844;2024-01-15T11:03:03;8.63;;;3.47;;
23304;SDS011;11821;51.456;8.844;2024-01-15T11:05:36;3.95;;;2.90;;
23304;SDS011;11821;51.456;8.844;2024-01-15T11:08:07;5.57;;;3.00;;
23304;SDS011;11821;51.456;8.844;2024-01-15T11:10:41;7.65;;;3.70;;
23304;SDS011;11821;51.456;8.844;2024-01-15T11:13:08;7.97;;;3.72;;
23304;SDS011;11821;51.456;8.844;2024-01-15T11:15:54;4.68;;;3.75;;
23304;SDS011;11821;51.456;8.844;2024-01-15T11:18:22;7.40;;;3.53;;
23304;SDS011;11821;51.456;8.844;2024-01-15T11:23:48;3.60;;;2.88;;
23304;SDS011;11821;51.456;8.844;2024-01-15T11:29:01;7.10;;;4.03;;
23304;SDS011;11821;51.456;8.844;2024-01-15T11:33:55;8.45;;;4.28;;
23304;SDS011;11821;51.456;8.844;2024-01-15T11:44:23;8.40;;;4.25;;
23304;SDS011;11821;51.456;8.844;2024-01-15T11:47:09;5.57;;;3.40;;
23304;SDS011;11821;51.456;8.844;2024-01-15T11:52:18;4.75;;;3.30;;
23304;SDS011;11821;51.456;8.844;2024-01-15T11:54:48;6.25;;;3.13;;
23304;SDS011;11821;51.456;8.844;2024-01-15T11:57:18;2.58;;;1.85;;
23304;SDS011;11821;51.456;8.844;2024-01-15T11:59:47;4.67;;;2.33;;
23304;SDS011;11821;51.456;8.844;2024-01-15T12:02:14;4.80;;;3.03;;
23304;SDS011;11821;51.456;8.844;2024-01-15T12:04:40;4.35;;;2.60;;
23304;SDS011;11821;51.456;8.844;2024-01-15T12:07:08;7.60;;;2.80;;
23304;SDS011;11821;51.456;8.844;2024-01-15T12:09:35;12.80;;;4.63;;
23304;SDS011;11821;51.456;8.844;2024-01-15T12:12:13;15.43;;;4.80;;
23304;SDS011;11821;51.456;8.844;2024-01-15T12:14:43;21.25;;;7.35;;
23304;SDS011;11821;51.456;8.844;2024-01-15T12:17:09;8.60;;;3.85;;
23304;SDS011;11821;51.456;8.844;2024-01-15T12:19:37;6.25;;;3.45;;
23304;SDS011;11821;51.456;8.844;2024-01-15T12:22:03;7.15;;;4.32;;
23304;SDS011;11821;51.456;8.844;2024-01-15T12:24:30;3.55;;;1.67;;
23304;SDS011;11821;51.456;8.844;2024-01-15T12:26:56;8.88;;;3.42;;
23304;SDS011;11821;51.456;8.844;2024-01-15T12:29:23;9.18;;;5.13;;
23304;SDS011;11821;51.456;8.844;2024-01-15T12:31:50;7.40;;;2.65;;
23304;SDS011;11821;51.456;8.844;2024-01-15T12:34:17;4.07;;;2.28;;
23304;SDS011;11821;51.456;8.844;2024-01-15T12:36:45;5.43;;;3.08;;
23304;SDS011;11821;51.456;8.844;2024-01-15T12:39:12;9.65;;;5.57;;
23304;SDS011;11821;51.456;8.844;2024-01-15T12:41:39;9.25;;;2.95;;
23304;SDS011;11821;51.456;8.844;2024-01-15T12:44:05;5.15;;;3.25;;
23304;SDS011;11821;51.456;8.844;2024-01-15T12:46:32;5.15;;;3.25;;
23304;SDS011;11821;51.456;8.844;2024-01-15T12:48:59;10.65;;;4.55;;
23304;SDS011;11821;51.456;8.844;2024-01-15T12:51:25;7.72;;;4.03;;
23304;SDS011;11821;51.456;8.844;2024-01-15T12:53:52;9.00;;;4.50;;
23304;SDS011;11821;51.456;8.844;2024-01-15T12:56:19;9.45;;;4.03;;
23304;SDS011;11821;51.456;8.844;2024-01-15T12:58:46;8.57;;;4.93;;
23304;SDS011;11821;51.456;8.844;2024-01-15T13:01:12;10.52;;;4.85;;
23304;SDS011;11821;51.456;8.844;2024-01-15T13:03:39;10.10;;;6.00;;
23304;SDS011;11821;51.456;8.844;2024-01-15T13:06:05;10.57;;;5.50;;
23304;SDS011;11821;51.456;8.844;2024-01-15T13:08:32;13.02;;;4.53;;
23304;SDS011;11821;51.456;8.844;2024-01-15T13:10:58;5.22;;;3.17;;
23304;SDS011;11821;51.456;8.844;2024-01-15T13:13:25;10.43;;;5.90;;
23304;SDS011;11821;51.456;8.844;2024-01-15T13:15:53;8.60;;;5.43;;
23304;SDS011;11821;51.456;8.844;2024-01-15T13:18:19;10.60;;;6.85;;
23304;SDS011;11821;51.456;8.844;2024-01-15T13:20:47;7.03;;;4.90;;
23304;SDS011;11821;51.456;8.844;2024-01-15T13:23:14;12.63;;;6.10;;
23304;SDS011;11821;51.456;8.844;2024-01-15T13:25:40;9.65;;;5.28;;
23304;SDS011;11821;51.456;8.844;2024-01-15T13:28:07;11.43;;;6.88;;
23304;SDS011;11821;51.456;8.844;2024-01-15T13:30:34;6.47;;;3.65;;
23304;SDS011;11821;51.456;8.844;2024-01-15T13:33:00;17.98;;;6.40;;
23304;SDS011;11821;51.456;8.844;2024-01-15T13:35:30;10.55;;;6.82;;
23304;SDS011;11821;51.456;8.844;2024-01-15T13:37:58;14.90;;;7.13;;
23304;SDS011;11821;51.456;8.844;2024-01-15T13:40:24;10.73;;;5.93;;
23304;SDS011;11821;51.456;8.844;2024-01-15T13:42:52;8.60;;;5.82;;
23304;SDS011;11821;51.456;8.844;2024-01-15T13:45:21;10.35;;;6.43;;
23304;SDS011;11821;51.456;8.844;2024-01-15T13:47:49;9.30;;;5.55;;
23304;SDS011;11821;51.456;8.844;2024-01-15T13:50:16;8.98;;;4.95;;
23304;SDS011;11821;51.456;8.844;2024-01-15T13:52:42;9.18;;;5.35;;
23304;SDS011;11821;51.456;8.844;2024-01-15T13:55:09;8.70;;;4.93;;
23304;SDS011;11821;51.456;8.844;2024-01-15T13:57:36;10.93;;;6.60;;
23304;SDS011;11821;51.456;8.844;2024-01-15T14:00:02;12.38;;;6.93;;
23304;SDS011;11821;51.456;8.844;2024-01-15T14:02:35;8.93;;;5.22;;
23304;SDS011;11821;51.456;8.844;2024-01-15T14:05:01;9.90;;;6.60;;
23304;SDS011;11821;51.456;8.844;2024-01-15T14:07:28;10.52;;;6.65;;
23304;SDS011;11821;51.456;8.844;2024-01-15T14:09:54;11.48;;;5.75;;
23304;SDS011;11821;51.456;8.844;2024-01-15T14:12:23;12.07;;;7.05;;
23304;SDS011;11821;51.456;8.844;2024-01-15T14:14:52;10.07;;;6.72;;
23304;SDS011;11821;51.456;8.844;2024-01-15T14:17:18;11.93;;;5.85;;
23304;SDS011;11821;51.456;8.844;2024-01-15T14:19:45;8.43;;;5.20;;
23304;SDS011;11821;51.456;8.844;2024-01-15T14:22:11;10.35;;;6.57;;
23304;SDS011;11821;51.456;8.844;2024-01-15T14:24:38;8.98;;;4.97;;
23304;SDS011;11821;51.456;8.844;2024-01-15T14:27:05;8.63;;;5.07;;
23304;SDS011;11821;51.456;8.844;2024-01-15T14:29:32;10.98;;;5.32;;
23304;SDS011;11821;51.456;8.844;2024-01-15T14:31:59;7.28;;;5.00;;
23304;SDS011;11821;51.456;8.844;2024-01-15T14:34:27;10.32;;;6.22;;
23304;SDS011;11821;51.456;8.844;2024-01-15T14:36:53;11.75;;;6.43;;
23304;SDS011;11821;51.456;8.844;2024-01-15T14:39:21;13.57;;;7.97;;
23304;SDS011;11821;51.456;8.844;2024-01-15T14:41:48;9.55;;;6.93;;
23304;SDS011;11821;51.456;8.844;2024-01-15T14:44:14;10.65;;;7.03;;
23304;SDS011;11821;51.456;8.844;2024-01-15T14:46:41;8.43;;;5.03;;
23304;SDS011;11821;51.456;8.844;2024-01-15T14:49:07;11.80;;;7.22;;
23304;SDS011;11821;51.456;8.844;2024-01-15T14:51:34;10.02;;;6.20;;
23304;SDS011;11821;51.456;8.844;2024-01-15T14:54:00;8.52;;;5.00;;
23304;SDS011;11821;51.456;8.844;2024-01-15T14:56:27;9.38;;;5.63;;
23304;SDS011;11821;51.456;8.844;2024-01-15T14:58:54;11.18;;;6.22;;